createdAt,value
2022-08-02T00:00:27.450Z,1.17
2022-08-02T00:04:29.275Z,1.20
2022-08-02T00:08:41.494Z,0.95
2022-08-02T00:12:43.307Z,1.20
2022-08-02T00:16:45.118Z,1.23
2022-08-02T00:20:49.646Z,1.33
2022-08-02T00:24:51.767Z,1.10
2022-08-02T00:28:57.456Z,1.20
2022-08-02T00:32:59.297Z,1.00
2022-08-02T00:37:01.104Z,1.13
2022-08-02T00:41:03.095Z,1.20
2022-08-02T00:45:05.420Z,1.10
2022-08-02T00:49:09.907Z,1.13
2022-08-02T00:53:11.753Z,1.00
2022-08-02T00:57:13.502Z,1.30
2022-08-02T01:01:15.576Z,1.02
2022-08-02T01:05:17.694Z,1.10
2022-08-02T01:09:26.219Z,1.40
2022-08-02T01:13:28.372Z,1.30
2022-08-02T01:17:46.591Z,1.08
2022-08-02T01:22:10.079Z,1.23
2022-08-02T01:26:42.741Z,1.10
2022-08-02T01:30:52.791Z,1.40
2022-08-02T01:35:22.890Z,1.20
2022-08-02T01:39:32.262Z,1.38
2022-08-02T01:43:36.308Z,1.30
2022-08-02T01:47:40.227Z,1.00
2022-08-02T01:52:02.318Z,1.30
2022-08-02T01:56:07.256Z,1.25
2022-08-02T02:00:10.676Z,1.88
2022-08-02T02:04:15.793Z,1.40
2022-08-02T02:08:27.426Z,1.60
2022-08-02T02:12:36.001Z,1.20
2022-08-02T02:16:41.080Z,1.63
2022-08-02T02:20:43.508Z,1.42
2022-08-02T02:24:45.285Z,1.50
2022-08-02T02:28:47.922Z,1.10
2022-08-02T02:32:52.235Z,1.15
2022-08-02T02:36:56.524Z,1.55
2022-08-02T02:41:12.144Z,1.55
2022-08-02T02:45:15.397Z,1.42
2022-08-02T02:49:18.928Z,1.88
2022-08-02T02:53:22.556Z,1.55
2022-08-02T02:57:24.899Z,1.30
2022-08-02T03:01:56.264Z,1.25
2022-08-02T03:05:55.370Z,1.90
2022-08-02T03:09:57.146Z,1.65
2022-08-02T03:14:00.307Z,1.60
2022-08-02T03:18:09.749Z,1.90
2022-08-02T03:22:12.120Z,1.85
2022-08-02T03:26:14.607Z,1.70
2022-08-02T03:30:19.719Z,1.75
2022-08-02T03:34:21.955Z,1.50
2022-08-02T03:38:28.267Z,1.60
2022-08-02T03:47:53.319Z,1.70
2022-08-02T03:51:55.642Z,1.80
2022-08-02T03:55:57.758Z,2.00
2022-08-02T03:59:59.535Z,1.85
2022-08-02T04:04:01.302Z,1.75
2022-08-02T04:08:35.187Z,1.80
2022-08-02T04:12:33.040Z,1.90
2022-08-02T04:16:45.754Z,2.03
2022-08-02T04:20:49.718Z,2.10
2022-08-02T04:24:57.106Z,2.30
2022-08-02T04:29:00.465Z,2.00
2022-08-02T04:33:07.756Z,1.80
2022-08-02T04:37:12.116Z,2.15
2022-08-02T04:41:13.832Z,2.17
2022-08-02T04:45:16.770Z,2.30
2022-08-02T04:49:19.199Z,2.17
2022-08-02T04:53:21.120Z,2.72
2022-08-02T04:57:52.344Z,2.10
2022-08-02T05:01:54.831Z,2.30
2022-08-02T05:05:56.726Z,2.35
2022-08-02T05:09:58.530Z,2.53
2022-08-02T05:14:00.286Z,2.30
2022-08-02T05:18:02.116Z,2.60
2022-08-02T05:22:07.904Z,2.72
2022-08-02T05:26:11.224Z,2.50
2022-08-02T05:30:13.088Z,2.15
2022-08-02T05:34:14.928Z,2.83
2022-08-02T05:38:16.740Z,2.70
2022-08-02T05:42:21.327Z,2.60
2022-08-02T05:46:23.188Z,2.53
2022-08-02T05:50:25.203Z,2.95
2022-08-02T05:54:54.950Z,2.40
2022-08-02T05:59:04.476Z,2.78
2022-08-02T06:03:20.652Z,2.80
2022-08-02T06:07:24.338Z,3.17
2022-08-02T06:11:34.712Z,2.80
2022-08-02T06:15:52.808Z,3.10
2022-08-02T06:19:58.975Z,3.10
2022-08-02T06:24:02.347Z,3.10
2022-08-02T06:28:10.341Z,3.20
2022-08-02T06:32:22.092Z,3.03
2022-08-02T06:36:47.590Z,3.17
2022-08-02T06:41:06.235Z,2.60
2022-08-02T06:45:09.280Z,2.90
2022-08-02T06:49:11.632Z,2.72
2022-08-02T06:53:13.560Z,3.20
2022-08-02T06:57:25.800Z,3.25
2022-08-02T07:01:27.590Z,2.85
2022-08-02T07:05:41.764Z,3.30
2022-08-02T07:10:00.210Z,2.70
2022-08-02T07:14:06.279Z,3.17
2022-08-02T07:18:08.146Z,3.17
2022-08-02T07:22:10.420Z,3.13
2022-08-02T07:26:13.259Z,3.53
2022-08-02T07:30:15.035Z,3.17
2022-08-02T07:34:20.563Z,3.13
2022-08-02T07:38:24.794Z,3.15
2022-08-02T07:42:28.789Z,3.72
2022-08-02T07:46:31.232Z,3.22
2022-08-02T07:50:33.162Z,3.13
2022-08-02T07:54:36.316Z,3.40
2022-08-02T07:58:38.084Z,3.03
2022-08-02T08:02:40.248Z,2.75
2022-08-02T08:06:42.247Z,1.90
2022-08-02T08:10:44.204Z,2.70
2022-08-02T08:14:50.408Z,2.15
2022-08-02T08:18:52.651Z,2.63
2022-08-02T08:22:54.489Z,2.30
2022-08-02T08:26:56.842Z,2.30
2022-08-02T08:30:58.807Z,2.17
2022-08-02T08:35:04.638Z,2.30
2022-08-02T08:39:06.714Z,2.38
2022-08-02T08:43:08.495Z,2.20
2022-08-02T08:47:12.222Z,2.22
2022-08-02T08:51:21.264Z,2.42
2022-08-02T08:55:26.930Z,2.25
2022-08-02T08:59:28.668Z,2.38
2022-08-02T09:03:39.350Z,1.88
2022-08-02T09:07:42.872Z,1.88
2022-08-02T09:11:44.678Z,1.77
2022-08-02T09:15:57.509Z,1.98
2022-08-02T09:20:09.165Z,2.10
2022-08-02T09:24:23.411Z,2.13
2022-08-02T09:32:50.015Z,1.90
2022-08-02T09:36:54.483Z,1.70
2022-08-02T09:40:57.167Z,1.88
2022-08-02T09:45:01.009Z,2.10
2022-08-02T09:49:25.189Z,1.90
2022-08-02T09:53:30.899Z,1.60
2022-08-02T09:57:38.563Z,1.50
2022-08-02T10:01:48.452Z,1.70
2022-08-02T10:05:56.112Z,1.88
2022-08-02T10:10:03.196Z,1.27
2022-08-02T10:14:07.851Z,1.55
2022-08-02T10:18:35.786Z,1.60
2022-08-02T10:22:34.040Z,1.65
2022-08-02T10:26:38.580Z,1.90
2022-08-02T10:30:45.563Z,1.50
2022-08-02T10:34:51.197Z,1.60
2022-08-02T10:38:55.237Z,1.63
2022-08-02T10:43:01.293Z,1.50
2022-08-02T10:47:17.016Z,1.60
2022-08-02T10:51:18.782Z,1.70
2022-08-02T10:55:26.372Z,1.65
2022-08-02T10:59:36.354Z,1.60
2022-08-02T11:03:40.581Z,1.73
2022-08-02T11:07:49.173Z,1.63
2022-08-02T11:12:07.744Z,1.80
2022-08-02T11:16:12.051Z,2.13
2022-08-02T11:20:19.680Z,1.48
2022-08-02T11:24:41.072Z,1.70
2022-08-02T11:28:49.593Z,1.50
2022-08-02T11:32:54.923Z,1.70
2022-08-02T11:36:56.778Z,1.70
2022-08-02T11:41:10.325Z,1.60
2022-08-02T11:45:21.388Z,1.63
2022-08-02T11:49:29.912Z,1.65
2022-08-02T11:53:42.543Z,1.95
2022-08-02T11:58:04.627Z,1.40
2022-08-02T12:02:08.941Z,1.80
2022-08-02T12:06:16.706Z,1.60
2022-08-02T12:10:22.637Z,1.50
2022-08-02T12:14:28.824Z,1.80
2022-08-02T12:18:49.374Z,1.40
2022-08-02T12:22:51.146Z,1.65
2022-08-02T12:26:52.967Z,1.65
2022-08-02T12:35:26.614Z,1.55
2022-08-02T12:39:38.017Z,2.05
2022-08-02T12:43:43.321Z,1.27
2022-08-02T12:47:54.208Z,1.30
2022-08-02T12:52:02.121Z,1.63
2022-08-02T12:56:08.930Z,1.50
2022-08-02T13:00:22.556Z,1.42
2022-08-02T13:04:32.173Z,1.48
2022-08-02T13:08:34.008Z,1.55
2022-08-02T13:12:37.439Z,1.40
2022-08-02T13:16:39.869Z,1.60
2022-08-02T13:20:43.229Z,1.58
2022-08-02T13:24:56.489Z,1.40
2022-08-02T13:28:58.783Z,1.50
2022-08-02T13:33:08.490Z,1.40
2022-08-02T13:37:10.484Z,1.35
2022-08-02T13:41:13.592Z,1.52
2022-08-02T13:45:15.758Z,1.80
2022-08-02T13:49:20.250Z,1.45
2022-08-02T13:53:23.728Z,1.50
2022-08-02T13:57:25.645Z,1.52
2022-08-02T14:01:27.492Z,1.60
2022-08-02T14:05:39.187Z,1.42
2022-08-02T14:09:49.832Z,1.48
2022-08-02T14:13:51.792Z,1.50
2022-08-02T14:17:53.544Z,1.40
2022-08-02T14:22:11.690Z,1.50
2022-08-02T14:26:27.209Z,1.40
2022-08-02T14:30:30.062Z,1.30
2022-08-02T14:34:31.902Z,1.38
2022-08-02T14:42:52.148Z,1.60
2022-08-02T14:47:08.440Z,1.60
2022-08-02T14:51:10.252Z,1.60
2022-08-02T14:55:16.855Z,1.40
2022-08-02T14:59:19.071Z,1.38
2022-08-02T15:03:20.878Z,1.55
2022-08-02T15:07:22.851Z,1.50
2022-08-02T15:11:25.128Z,1.40
2022-08-02T15:15:26.944Z,1.50
2022-08-02T15:19:56.286Z,1.20
2022-08-02T15:28:07.266Z,1.42
2022-08-02T15:32:09.262Z,1.50
2022-08-02T15:36:11.550Z,1.20
2022-08-02T15:40:13.455Z,1.40
2022-08-02T15:44:15.355Z,1.52
2022-08-02T15:48:17.617Z,1.60
2022-08-02T15:52:19.471Z,1.20
2022-08-02T15:56:24.291Z,1.58
2022-08-02T16:00:26.580Z,1.77
2022-08-02T16:04:30.674Z,1.40
2022-08-02T16:08:32.417Z,1.55
2022-08-02T16:12:34.211Z,1.30
2022-08-02T16:16:37.063Z,1.67
2022-08-02T16:20:38.890Z,1.63
2022-08-02T16:24:40.701Z,1.63
2022-08-02T16:28:42.535Z,1.63
2022-08-02T16:32:44.281Z,2.20
2022-08-02T16:36:49.357Z,1.60
2022-08-02T16:40:51.147Z,1.75
2022-08-02T16:44:57.563Z,1.60
2022-08-02T16:49:00.027Z,1.80
2022-08-02T16:53:06.986Z,1.40
2022-08-02T16:57:09.528Z,1.48
2022-08-02T17:01:12.238Z,1.85
2022-08-02T17:05:14.781Z,1.60
2022-08-02T17:10:04.475Z,1.70
2022-08-02T17:13:38.394Z,1.50
2022-08-02T17:17:43.193Z,1.50
2022-08-02T17:21:52.681Z,1.85
2022-08-02T17:25:54.464Z,2.20
2022-08-02T17:29:56.392Z,3.38
2022-08-02T17:33:58.467Z,2.30
2022-08-02T17:38:00.468Z,2.63
2022-08-02T17:42:04.570Z,1.70
2022-08-02T17:46:07.157Z,1.80
2022-08-02T17:50:12.286Z,1.70
2022-08-02T17:54:18.690Z,1.75
2022-08-02T17:58:20.725Z,1.80
2022-08-02T18:02:22.607Z,1.80
2022-08-02T18:06:27.416Z,2.05
2022-08-02T18:10:38.329Z,3.33
2022-08-02T18:14:46.208Z,2.58
2022-08-02T18:18:56.436Z,2.28
2022-08-02T18:23:04.910Z,2.08
2022-08-02T18:27:13.756Z,2.33
2022-08-02T18:31:22.764Z,2.08
2022-08-02T18:35:24.957Z,2.28
2022-08-02T18:39:33.108Z,1.98
2022-08-02T18:43:39.335Z,2.20
2022-08-02T18:47:54.365Z,2.05
2022-08-02T18:51:56.556Z,2.60
2022-08-02T18:56:03.934Z,2.42
2022-08-02T19:00:07.255Z,2.30
2022-08-02T19:04:27.644Z,1.90
2022-08-02T19:08:30.407Z,2.40
2022-08-02T19:12:41.867Z,2.03
2022-08-02T19:16:47.938Z,2.28
2022-08-02T19:21:05.494Z,3.10
2022-08-02T19:25:14.304Z,4.13
2022-08-02T19:29:42.075Z,3.08
2022-08-02T19:34:05.966Z,3.00
2022-08-02T19:38:11.335Z,3.85
2022-08-02T19:46:31.133Z,2.80
2022-08-02T19:50:33.415Z,2.35
2022-08-02T19:54:55.495Z,2.30
2022-08-02T19:59:12.933Z,2.25
2022-08-02T20:03:16.122Z,2.50
2022-08-02T20:07:53.939Z,2.55
2022-08-02T20:11:54.422Z,2.40
2022-08-02T20:15:57.448Z,2.80
2022-08-02T20:19:59.340Z,3.08
2022-08-02T20:24:10.574Z,3.10
2022-08-02T20:28:13.345Z,3.00
2022-08-02T20:36:38.259Z,2.50
2022-08-02T20:40:51.019Z,2.40
2022-08-02T20:44:55.986Z,2.30
2022-08-02T20:49:06.710Z,2.55
2022-08-02T20:53:25.367Z,2.70
2022-08-02T20:58:00.151Z,2.88
2022-08-02T21:02:16.321Z,2.58
2022-08-02T21:06:18.591Z,2.38
2022-08-02T21:10:36.280Z,2.60
2022-08-02T21:14:38.688Z,2.70
2022-08-02T21:18:41.238Z,3.00
2022-08-02T21:22:45.429Z,2.20
2022-08-02T21:26:47.327Z,2.63
2022-08-02T21:30:50.828Z,2.55
2022-08-02T21:34:53.038Z,2.92
2022-08-02T21:38:57.497Z,2.70
2022-08-02T21:42:59.391Z,2.67
2022-08-02T21:47:02.044Z,2.45
2022-08-02T21:51:08.643Z,2.50
2022-08-02T21:55:21.259Z,2.67
2022-08-02T21:59:29.522Z,2.85
2022-08-02T22:03:32.145Z,2.42
2022-08-02T22:07:38.163Z,2.33
2022-08-02T22:11:40.453Z,2.67
2022-08-02T22:15:42.233Z,2.50
2022-08-02T22:19:50.958Z,2.40
2022-08-02T22:23:56.152Z,2.95
2022-08-02T22:28:37.412Z,2.20
2022-08-02T22:32:55.056Z,2.47
2022-08-02T22:36:57.699Z,2.42
2022-08-02T22:40:59.538Z,2.40
2022-08-02T22:45:02.748Z,2.53
2022-08-02T22:49:04.664Z,2.60
2022-08-02T22:53:08.568Z,2.90
2022-08-02T22:57:11.503Z,2.70
2022-08-02T23:05:31.090Z,3.10
2022-08-02T23:09:33.060Z,2.88
2022-08-02T23:13:34.956Z,2.83
2022-08-02T23:22:10.928Z,2.92
2022-08-02T23:26:12.836Z,3.08
2022-08-02T23:30:14.877Z,2.75
2022-08-02T23:34:16.676Z,2.88
2022-08-02T23:38:18.610Z,2.90
2022-08-02T23:42:20.430Z,2.67
2022-08-02T23:46:22.614Z,2.70
2022-08-02T23:50:24.638Z,2.80
2022-08-02T23:54:27.106Z,2.45
2022-08-02T23:58:36.554Z,2.70
